Dogwood City, Texas
Current Conditions -  °F | °C
As of 10:53 PM on Friday 28 Nov 2014 (Local Time) from KTYR Reporting Station
Clear Clear  
Wind Chill: 58°   Ceiling: Unl
Heat Index: 58°   Visibility: 10mi
Dew Point: 53°   Wind: 16mph
Humidity: 84%   Direction: 190°S
Pressure: 30.05"   Gusts: NA
Location:  32.2242°N, 95.404°W
Report Text: KTYR 290453Z AUTO 19014KT 10SM CLR 14/12 A3005 RMK AO2 SLP172 T01440117
Loading
Personal Weather Stations






























Interactive Weather Map New forecast layout! Learn more

10-Day Weather Forecast

Advertisements
Track Severe Weather on mobile